Time;durP1;ratioP1;P1;durP2;ratioP2;P2;SDS_P1;SDS_P2;PMS_P1;PMS_P2;Temp;Humidity;BMP_temperature;BMP_pressure;BME280_temperature;BME280_humidity;BME280_pressure;Samples;Min_cycle;Max_cycle;Signal;HPM_P1;HPM_P2
2022/03/05 00:02:18;;;;;;;29.05;20.08;;;13.40;49.80;;;;;;5123535;27;20008;-66
2022/03/05 00:04:43;;;;;;;28.95;20.05;;;13.40;49.70;;;;;;5123485;28;20034;-67
2022/03/05 00:07:09;;;;;;;27.65;20.33;;;13.40;49.80;;;;;;5123422;27;20031;-66
2022/03/05 00:09:35;;;;;;;31.48;22.23;;;13.40;49.70;;;;;;5123403;28;20020;-67
2022/03/05 00:12:01;;;;;;;30.30;20.77;;;13.40;49.90;;;;;;5123312;28;20035;-67
2022/03/05 00:14:26;;;;;;;29.40;21.30;;;13.40;49.70;;;;;;5123260;28;20027;-67
2022/03/05 00:16:52;;;;;;;28.73;20.05;;;13.40;49.90;;;;;;5123187;28;20027;-68
2022/03/05 00:19:18;;;;;;;31.80;20.85;;;13.40;49.80;;;;;;5123185;28;20098;-67
2022/03/05 00:21:43;;;;;;;30.65;21.83;;;13.50;50.00;;;;;;5123150;28;20027;-67
2022/03/05 00:24:09;;;;;;;30.15;21.02;;;13.50;50.00;;;;;;5123084;28;20224;-67
2022/03/05 00:26:35;;;;;;;30.83;21.38;;;13.40;49.90;;;;;;5123033;28;20083;-66
2022/03/05 00:29:00;;;;;;;29.42;20.35;;;13.40;49.80;;;;;;5122956;28;20035;-68
2022/03/05 00:31:26;;;;;;;28.80;19.27;;;13.40;49.70;;;;;;5122973;28;20047;-67
2022/03/05 00:33:51;;;;;;;31.27;21.58;;;13.40;49.70;;;;;;5122859;28;20080;-67
2022/03/05 00:36:17;;;;;;;29.10;20.60;;;13.40;49.80;;;;;;5122581;28;20081;-67
2022/03/05 00:38:43;;;;;;;28.30;19.92;;;13.40;49.80;;;;;;5122806;28;20034;-68
2022/03/05 00:41:09;;;;;;;31.75;21.73;;;13.40;49.70;;;;;;5122803;28;20023;-67
2022/03/05 00:43:35;;;;;;;29.65;20.52;;;13.40;49.70;;;;;;5122728;28;20045;-67
2022/03/05 00:46:00;;;;;;;27.02;20.08;;;13.40;49.90;;;;;;5122143;28;20047;-66
2022/03/05 00:48:26;;;;;;;32.35;20.75;;;13.40;49.80;;;;;;5122631;28;20023;-66
2022/03/05 00:50:52;;;;;;;29.92;20.15;;;13.40;49.90;;;;;;5122533;28;20028;-66
2022/03/05 00:53:18;;;;;;;30.45;21.27;;;13.40;50.00;;;;;;5122509;28;20336;-67
2022/03/05 00:55:44;;;;;;;33.60;21.70;;;13.50;49.90;;;;;;5122448;28;20027;-66
2022/03/05 00:58:10;;;;;;;32.47;20.73;;;13.50;50.00;;;;;;5122383;28;20053;-66
2022/03/05 01:00:36;;;;;;;28.13;19.60;;;13.50;49.80;;;;;;5122356;28;20095;-66
2022/03/05 01:03:02;;;;;;;29.85;20.67;;;13.50;49.80;;;;;;5122340;27;20479;-68
2022/03/05 01:05:28;;;;;;;29.98;19.80;;;13.40;49.70;;;;;;5122271;28;20141;-68
2022/03/05 01:07:54;;;;;;;30.55;21.02;;;13.40;49.90;;;;;;5122204;28;20031;-67
2022/03/05 01:10:19;;;;;;;31.00;20.58;;;13.40;49.70;;;;;;5122135;28;20019;-68
2022/03/05 01:12:45;;;;;;;27.85;20.20;;;13.40;49.80;;;;;;5120832;28;20515;-68
2022/03/05 01:15:12;;;;;;;29.65;20.27;;;13.40;49.70;;;;;;5121967;28;20034;-67
2022/03/05 01:17:37;;;;;;;30.13;21.30;;;13.50;49.90;;;;;;5122038;28;20075;-67
2022/03/05 01:20:04;;;;;;;28.55;20.08;;;13.50;49.80;;;;;;5121953;28;20551;-68
2022/03/05 01:22:29;;;;;;;29.10;19.77;;;13.40;49.80;;;;;;5121848;28;20338;-67
2022/03/05 01:24:55;;;;;;;27.65;20.00;;;13.40;49.70;;;;;;5121921;28;20106;-68
2022/03/05 01:27:22;;;;;;;29.40;20.17;;;13.50;49.80;;;;;;5121749;28;20039;-67
2022/03/05 01:29:48;;;;;;;26.35;19.23;;;13.40;49.80;;;;;;5121812;28;20019;-67
2022/03/05 01:32:14;;;;;;;28.95;20.00;;;13.40;49.60;;;;;;5121746;28;20027;-67
2022/03/05 01:34:39;;;;;;;29.55;20.52;;;13.50;49.80;;;;;;5121699;28;20354;-67
2022/03/05 01:37:05;;;;;;;27.08;19.85;;;13.40;49.70;;;;;;5121401;28;20588;-67
2022/03/05 01:39:31;;;;;;;27.00;19.33;;;13.40;49.80;;;;;;5121516;28;20069;-67
2022/03/05 01:41:57;;;;;;;28.90;20.40;;;13.40;49.80;;;;;;5121581;28;20220;-67
2022/03/05 01:44:24;;;;;;;29.42;20.20;;;13.40;49.90;;;;;;5121509;28;20023;-67
2022/03/05 01:46:50;;;;;;;31.83;21.55;;;13.40;49.80;;;;;;5121437;28;20083;-67
2022/03/05 01:49:16;;;;;;;30.50;19.55;;;13.40;49.80;;;;;;5121434;28;20058;-67
2022/03/05 01:51:42;;;;;;;29.45;20.75;;;13.40;49.60;;;;;;5121306;28;20089;-67
2022/03/05 01:54:09;;;;;;;27.98;20.20;;;13.50;49.70;;;;;;5121361;28;20129;-67
2022/03/05 01:56:36;;;;;;;28.02;19.52;;;13.40;49.80;;;;;;5120804;28;20068;-68
2022/03/05 01:59:03;;;;;;;29.20;19.95;;;13.40;49.70;;;;;;5120870;28;20012;-66
2022/03/05 02:01:29;;;;;;;28.15;20.50;;;13.50;49.90;;;;;;5121174;28;20046;-68
2022/03/05 02:03:56;;;;;;;27.83;19.58;;;13.50;49.70;;;;;;5121147;28;20295;-67
2022/03/05 02:06:23;;;;;;;28.08;20.20;;;13.50;49.80;;;;;;5121038;28;20027;-67
2022/03/05 02:08:49;;;;;;;31.25;20.48;;;13.40;49.80;;;;;;5121074;28;20034;-67
2022/03/05 02:11:16;;;;;;;29.65;19.85;;;13.50;49.80;;;;;;5119703;28;20038;-67
2022/03/05 02:13:42;;;;;;;26.83;19.40;;;13.50;49.80;;;;;;5120928;28;20043;-68
2022/03/05 02:16:08;;;;;;;29.00;20.40;;;13.50;49.70;;;;;;5120868;28;20312;-67
2022/03/05 02:18:34;;;;;;;28.85;19.65;;;13.50;49.80;;;;;;5120918;28;20072;-67
2022/03/05 02:21:00;;;;;;;28.70;20.10;;;13.40;49.70;;;;;;5120870;28;20019;-67
2022/03/05 02:23:26;;;;;;;29.05;20.45;;;13.50;49.70;;;;;;5120856;28;20020;-68
2022/03/05 02:25:57;;;;;;;26.88;19.25;;;13.50;49.80;;;;;;5120746;28;20077;-68
2022/03/05 02:28:24;;;;;;;26.30;19.08;;;13.50;49.70;;;;;;5119814;28;20196;-67
2022/03/05 02:30:51;;;;;;;25.98;19.40;;;13.40;49.80;;;;;;5120714;28;20016;-66
2022/03/05 02:33:17;;;;;;;30.08;20.30;;;13.40;49.80;;;;;;5120676;28;20323;-66
2022/03/05 02:35:43;;;;;;;27.80;19.02;;;13.40;49.80;;;;;;5120437;28;20050;-67
2022/03/05 02:38:16;;;;;;;29.90;20.30;;;13.40;49.90;;;;;;5120543;28;20035;-66
2022/03/05 02:40:43;;;;;;;31.42;20.58;;;13.40;49.80;;;;;;5120256;28;20086;-68
2022/03/05 02:43:10;;;;;;;27.05;19.08;;;13.40;49.80;;;;;;5120528;28;20091;-66
2022/03/05 02:45:36;;;;;;;29.40;20.13;;;13.40;49.70;;;;;;5120536;28;20095;-66
2022/03/05 02:48:04;;;;;;;30.08;19.65;;;13.50;49.90;;;;;;5120515;28;20058;-67
2022/03/05 02:50:30;;;;;;;28.20;19.77;;;13.50;49.80;;;;;;5120509;28;20016;-67
2022/03/05 02:52:56;;;;;;;30.52;20.38;;;13.50;49.80;;;;;;5120474;28;20262;-67
2022/03/05 02:55:22;;;;;;;28.75;19.30;;;13.40;49.80;;;;;;5120348;28;20038;-67
2022/03/05 02:57:47;;;;;;;28.98;19.77;;;13.50;49.80;;;;;;5120387;28;20066;-67
2022/03/05 03:00:15;;;;;;;26.77;19.15;;;13.40;49.80;;;;;;5120391;28;20173;-66
2022/03/05 03:02:41;;;;;;;26.25;19.13;;;13.40;49.70;;;;;;5120391;28;20069;-66
2022/03/05 03:05:07;;;;;;;26.77;19.88;;;13.50;49.80;;;;;;5120433;28;20024;-67
2022/03/05 03:07:32;;;;;;;27.33;19.10;;;13.40;49.70;;;;;;5120281;28;20054;-67
2022/03/05 03:09:58;;;;;;;29.55;19.83;;;13.40;49.80;;;;;;5123838;28;20564;-67
2022/03/05 03:12:26;;;;;;;26.10;18.95;;;13.40;49.80;;;;;;5124437;28;20061;-66
2022/03/05 03:14:51;;;;;;;26.13;19.52;;;13.40;49.90;;;;;;5124367;28;20030;-67
2022/03/05 03:17:17;;;;;;;28.92;18.95;;;13.40;50.00;;;;;;5124256;28;20023;-67
2022/03/05 03:19:43;;;;;;;26.40;18.50;;;13.40;50.00;;;;;;5124322;28;20016;-67
2022/03/05 03:22:09;;;;;;;28.45;19.40;;;13.40;50.00;;;;;;5124322;28;20035;-67
2022/03/05 03:24:35;;;;;;;27.27;19.25;;;13.40;50.00;;;;;;5124263;28;20226;-68
2022/03/05 03:27:02;;;;;;;27.33;19.05;;;13.40;49.70;;;;;;5124181;28;20020;-67
2022/03/05 03:29:27;;;;;;;29.20;20.42;;;13.40;49.60;;;;;;5124124;28;20064;-67
2022/03/05 03:31:53;;;;;;;29.33;19.98;;;13.30;49.40;;;;;;5124098;28;20031;-67
2022/03/05 03:34:19;;;;;;;28.65;19.45;;;13.40;50.10;;;;;;5124102;28;20058;-66
2022/03/05 03:36:45;;;;;;;27.42;18.70;;;13.40;49.90;;;;;;5123863;28;20098;-67
2022/03/05 03:39:11;;;;;;;27.83;19.38;;;13.40;50.00;;;;;;5122758;28;20027;-67
2022/03/05 03:41:37;;;;;;;29.65;19.88;;;13.40;49.90;;;;;;5123949;28;20020;-67
2022/03/05 03:44:03;;;;;;;27.45;19.58;;;13.40;49.80;;;;;;5123901;28;20043;-67
2022/03/05 03:46:29;;;;;;;30.35;19.52;;;13.40;50.00;;;;;;5123822;28;20031;-67
2022/03/05 03:48:54;;;;;;;27.83;20.50;;;13.40;49.80;;;;;;5123820;28;20215;-67
2022/03/05 03:51:20;;;;;;;26.27;19.25;;;13.40;49.80;;;;;;5123731;28;20038;-68
2022/03/05 03:53:46;;;;;;;30.52;20.85;;;13.40;49.70;;;;;;5123727;28;20028;-67
2022/03/05 03:56:13;;;;;;;29.50;20.40;;;13.40;49.80;;;;;;5123598;28;20019;-66
2022/03/05 03:58:39;;;;;;;28.52;19.77;;;13.40;49.80;;;;;;5123613;28;20015;-66
2022/03/05 04:01:05;;;;;;;29.17;19.08;;;13.40;49.80;;;;;;5122340;28;20016;-67
2022/03/05 04:03:31;;;;;;;30.10;19.58;;;13.40;49.50;;;;;;5123505;27;20050;-67
2022/03/05 04:05:56;;;;;;;31.52;20.85;;;13.40;49.70;;;;;;5123543;28;20359;-66
2022/03/05 04:11:07;;;;;;;32.60;21.02;;;13.40;50.00;;;;;;5123407;28;20343;-67
2022/03/05 04:13:33;;;;;;;28.80;19.42;;;13.40;49.60;;;;;;5123296;28;20027;-67
2022/03/05 04:15:59;;;;;;;26.73;19.73;;;13.30;49.60;;;;;;5123193;28;20471;-66
2022/03/05 04:18:24;;;;;;;26.10;18.77;;;13.30;49.80;;;;;;5123183;28;20064;-67
2022/03/05 04:20:50;;;;;;;25.80;19.42;;;13.30;49.50;;;;;;5120958;28;20023;-67
2022/03/05 04:23:16;;;;;;;27.60;19.05;;;13.30;49.50;;;;;;5123130;28;20227;-66
2022/03/05 04:25:41;;;;;;;30.30;19.98;;;13.20;49.60;;;;;;5123058;28;20031;-68
2022/03/05 04:28:07;;;;;;;28.85;19.75;;;13.30;49.80;;;;;;5123039;28;20031;-66
2022/03/05 04:30:33;;;;;;;28.25;20.27;;;13.30;50.00;;;;;;5122977;28;20023;-67
2022/03/05 04:32:59;;;;;;;27.33;19.23;;;13.30;50.00;;;;;;5122974;28;20038;-68
2022/03/05 04:35:25;;;;;;;27.90;19.42;;;13.40;49.60;;;;;;5122616;28;20021;-66
2022/03/05 04:37:51;;;;;;;26.05;18.75;;;13.40;49.70;;;;;;5122811;28;20034;-67
2022/03/05 04:40:17;;;;;;;28.70;20.42;;;13.20;48.40;;;;;;5122812;28;20250;-67
2022/03/05 04:42:43;;;;;;;26.08;18.55;;;13.20;49.60;;;;;;5122777;28;20035;-67
2022/03/05 04:45:09;;;;;;;26.67;19.27;;;13.30;49.70;;;;;;5122705;28;20227;-66
2022/03/05 04:47:36;;;;;;;28.05;18.75;;;13.30;49.90;;;;;;5122618;28;20026;-67
2022/03/05 04:50:04;;;;;;;28.42;19.05;;;13.30;49.60;;;;;;5122521;28;20031;-66
2022/03/05 04:52:30;;;;;;;28.42;19.60;;;13.30;49.90;;;;;;5122621;28;20020;-67
2022/03/05 04:54:56;;;;;;;30.40;19.27;;;13.40;50.00;;;;;;5122567;28;20426;-67
2022/03/05 04:57:22;;;;;;;29.30;19.15;;;13.30;49.20;;;;;;5122433;28;20035;-68
2022/03/05 04:59:48;;;;;;;27.85;19.35;;;13.10;48.50;;;;;;5122547;28;20045;-67
2022/03/05 05:02:14;;;;;;;25.27;18.65;;;13.10;49.60;;;;;;5122414;28;20024;-66
2022/03/05 05:04:39;;;;;;;27.73;19.85;;;13.20;50.40;;;;;;5122423;27;20335;-67
2022/03/05 05:07:05;;;;;;;28.13;20.30;;;13.20;49.80;;;;;;5122299;28;20028;-68
2022/03/05 05:09:31;;;;;;;24.63;18.17;;;13.30;49.80;;;;;;5122297;28;20059;-66
2022/03/05 05:11:56;;;;;;;24.92;18.55;;;13.30;49.70;;;;;;5122253;28;20032;-67
2022/03/05 05:14:22;;;;;;;26.58;19.10;;;13.20;49.30;;;;;;5122221;28;20030;-66
2022/03/05 05:16:48;;;;;;;26.95;18.95;;;13.10;48.90;;;;;;5122065;28;20045;-67
2022/03/05 05:19:29;;;;;;;25.58;18.70;;;13.10;48.50;;;;;;5122188;28;20024;-68
2022/03/05 05:22:00;;;;;;;28.38;19.15;;;13.10;49.50;;;;;;5122083;28;20278;-66
2022/03/05 05:24:28;;;;;;;26.92;19.88;;;13.20;50.00;;;;;;5122114;28;20071;-68
2022/03/05 05:26:56;;;;;;;26.92;19.40;;;13.30;50.10;;;;;;5121960;28;20045;-67
2022/03/05 05:29:21;;;;;;;30.33;19.52;;;13.20;49.50;;;;;;5121875;27;20030;-67
2022/03/05 05:31:48;;;;;;;27.88;19.60;;;13.20;48.30;;;;;;5121865;28;20027;-67
2022/03/05 05:34:14;;;;;;;27.67;18.92;;;13.10;49.00;;;;;;5121880;28;20034;-66
2022/03/05 05:36:40;;;;;;;27.52;19.15;;;13.10;48.40;;;;;;5121743;28;20100;-66
2022/03/05 05:39:06;;;;;;;27.77;19.20;;;13.10;49.50;;;;;;5121776;28;20028;-66
2022/03/05 05:41:34;;;;;;;27.67;19.30;;;13.10;49.60;;;;;;5121749;28;20316;-67
2022/03/05 05:43:59;;;;;;;28.95;20.02;;;13.20;50.00;;;;;;5121638;27;20027;-66
2022/03/05 05:46:25;;;;;;;29.20;19.30;;;13.20;49.70;;;;;;5121597;28;20038;-67
2022/03/05 05:48:51;;;;;;;28.35;18.73;;;13.20;49.70;;;;;;5121547;28;20031;-68
2022/03/05 05:51:16;;;;;;;26.40;19.90;;;13.10;48.30;;;;;;5121557;28;20500;-67
2022/03/05 05:53:42;;;;;;;26.70;18.67;;;13.10;48.10;;;;;;5121442;28;20028;-67
2022/03/05 05:56:09;;;;;;;26.60;18.65;;;13.10;49.10;;;;;;5121356;28;20521;-67
2022/03/05 05:58:35;;;;;;;28.15;19.48;;;13.10;49.90;;;;;;5121385;28;20083;-67
2022/03/05 06:01:00;;;;;;;27.20;19.02;;;13.20;50.10;;;;;;5121510;28;20022;-67
2022/03/05 06:03:27;;;;;;;28.42;18.42;;;13.30;49.90;;;;;;5121299;28;20459;-67
2022/03/05 06:05:52;;;;;;;26.25;19.58;;;13.40;49.50;;;;;;5121229;28;20023;-66
2022/03/05 06:08:18;;;;;;;25.45;18.40;;;13.30;49.40;;;;;;5121201;28;20072;-68
2022/03/05 06:10:44;;;;;;;26.80;18.80;;;13.20;49.20;;;;;;5121189;28;20047;-67
2022/03/05 06:13:09;;;;;;;29.50;19.77;;;13.20;49.70;;;;;;5121123;28;20354;-67
2022/03/05 06:15:35;;;;;;;29.02;19.70;;;13.20;49.60;;;;;;5120999;28;20384;-68
2022/03/05 06:18:02;;;;;;;26.58;18.50;;;13.30;49.80;;;;;;5121007;28;20036;-66
2022/03/05 06:20:27;;;;;;;27.85;19.10;;;13.30;49.70;;;;;;5120964;28;20096;-68
2022/03/05 06:22:53;;;;;;;27.40;18.67;;;13.40;49.70;;;;;;5120984;28;20027;-68
2022/03/05 06:25:19;;;;;;;25.42;18.45;;;13.20;49.00;;;;;;5121028;28;20050;-67
2022/03/05 06:27:45;;;;;;;27.90;19.17;;;13.10;49.30;;;;;;5120918;28;20237;-67
2022/03/05 06:30:12;;;;;;;28.88;19.48;;;13.10;49.10;;;;;;5120859;28;20043;-67
2022/03/05 06:32:37;;;;;;;26.42;19.02;;;13.10;49.60;;;;;;5120860;28;20019;-68
2022/03/05 06:35:05;;;;;;;26.60;19.35;;;13.20;50.00;;;;;;5120751;28;20030;-67
2022/03/05 06:37:32;;;;;;;26.88;19.17;;;13.30;49.80;;;;;;5120448;28;20073;-66
2022/03/05 06:39:58;;;;;;;26.48;18.35;;;13.30;49.60;;;;;;5120663;28;20039;-68
2022/03/05 06:42:24;;;;;;;29.23;19.67;;;13.40;49.80;;;;;;5119484;28;20033;-68
2022/03/05 06:44:50;;;;;;;26.77;19.65;;;13.30;49.50;;;;;;5120239;28;20039;-67
2022/03/05 06:47:16;;;;;;;26.85;18.25;;;13.30;49.20;;;;;;5120684;28;20031;-68
2022/03/05 06:49:42;;;;;;;25.73;18.45;;;13.10;48.70;;;;;;5120647;28;20043;-67
2022/03/05 06:52:10;;;;;;;26.55;18.88;;;13.20;49.80;;;;;;5120640;28;20023;-67
2022/03/05 06:54:36;;;;;;;24.92;18.25;;;13.30;49.90;;;;;;5120587;28;20050;-66
2022/03/05 06:57:02;;;;;;;28.33;19.25;;;13.40;49.90;;;;;;5120528;28;20027;-68
2022/03/05 06:59:28;;;;;;;26.42;19.17;;;13.50;49.80;;;;;;5120639;28;20074;-67
2022/03/05 07:01:54;;;;;;;30.95;20.15;;;13.50;49.50;;;;;;5120591;28;20035;-68
2022/03/05 07:04:19;;;;;;;29.63;20.08;;;13.40;49.50;;;;;;5120438;28;20016;-67
2022/03/05 07:06:45;;;;;;;26.25;19.25;;;13.40;49.70;;;;;;5119256;28;20227;-67
2022/03/05 07:09:11;;;;;;;26.38;18.58;;;13.40;49.60;;;;;;5120444;28;20080;-67
2022/03/05 07:11:37;;;;;;;25.23;18.25;;;13.40;49.60;;;;;;5120514;28;20079;-66
2022/03/05 07:14:03;;;;;;;28.75;18.63;;;13.40;49.60;;;;;;5120383;28;20082;-67
2022/03/05 07:16:29;;;;;;;25.70;18.27;;;13.50;49.60;;;;;;5120352;28;20019;-67
2022/03/05 07:18:54;;;;;;;26.88;20.08;;;13.50;49.60;;;;;;5120363;28;20031;-67
2022/03/05 07:21:20;;;;;;;28.02;19.35;;;13.50;49.60;;;;;;5120283;28;20260;-67
2022/03/05 07:23:46;;;;;;;29.15;19.55;;;13.50;49.60;;;;;;5120329;28;20035;-67
2022/03/05 07:26:12;;;;;;;28.55;19.45;;;13.50;49.70;;;;;;5120303;28;20204;-66
2022/03/05 07:28:37;;;;;;;27.58;19.42;;;13.50;49.50;;;;;;5120288;28;20084;-66
2022/03/05 07:31:03;;;;;;;26.35;18.88;;;13.50;49.50;;;;;;5120267;28;20035;-68
2022/03/05 07:33:29;;;;;;;26.25;18.67;;;13.50;49.40;;;;;;5120243;28;20044;-67
2022/03/05 07:35:54;;;;;;;26.70;18.83;;;13.50;49.40;;;;;;5119974;28;20032;-67
2022/03/05 07:38:20;;;;;;;27.85;19.67;;;13.50;49.30;;;;;;5120217;28;20024;-67
2022/03/05 07:40:46;;;;;;;28.20;20.13;;;13.50;49.50;;;;;;5120244;28;20031;-67
2022/03/05 07:43:12;;;;;;;27.65;19.67;;;13.50;49.50;;;;;;5120152;28;20031;-68
2022/03/05 07:45:38;;;;;;;29.13;19.67;;;13.50;49.50;;;;;;5120162;28;20128;-68
2022/03/05 07:48:04;;;;;;;27.33;19.42;;;13.50;49.40;;;;;;5120163;28;20043;-67
2022/03/05 07:50:30;;;;;;;26.50;18.80;;;13.50;49.50;;;;;;5120190;28;20430;-67
2022/03/05 07:52:56;;;;;;;25.88;18.88;;;13.50;49.40;;;;;;5120134;28;20027;-66
2022/03/05 07:55:22;;;;;;;31.40;21.02;;;13.50;49.50;;;;;;5120646;28;20019;-67
2022/03/05 07:57:48;;;;;;;27.10;19.02;;;13.50;49.20;;;;;;5123813;28;20016;-66
2022/03/05 08:00:14;;;;;;;30.98;20.10;;;13.50;49.30;;;;;;5123707;27;20019;-66
2022/03/05 08:02:39;;;;;;;27.20;19.75;;;13.50;49.30;;;;;;5123673;28;20225;-68
2022/03/05 08:05:06;;;;;;;27.10;19.15;;;13.50;49.30;;;;;;5123644;28;20032;-67
2022/03/05 08:07:31;;;;;;;27.35;19.33;;;13.50;49.30;;;;;;5123591;28;20121;-67
2022/03/05 08:09:57;;;;;;;27.60;20.17;;;13.50;49.40;;;;;;5123457;28;20031;-67
2022/03/05 08:12:23;;;;;;;26.70;19.45;;;13.50;49.30;;;;;;5123495;28;20011;-67
2022/03/05 08:14:49;;;;;;;27.77;19.80;;;13.50;49.40;;;;;;5123439;28;20055;-65
2022/03/05 08:17:15;;;;;;;31.02;19.23;;;13.50;49.30;;;;;;5123339;28;20031;-66
2022/03/05 08:19:41;;;;;;;28.25;19.67;;;13.50;49.30;;;;;;5123295;28;20035;-67
2022/03/05 08:22:07;;;;;;;31.02;20.52;;;13.50;49.20;;;;;;5123335;27;20028;-67
2022/03/05 08:24:32;;;;;;;27.17;20.02;;;13.50;49.20;;;;;;5123201;28;20018;-66
2022/03/05 08:26:58;;;;;;;27.63;19.88;;;13.50;49.10;;;;;;5123143;28;20023;-67
2022/03/05 08:29:24;;;;;;;29.00;20.23;;;13.50;49.30;;;;;;5123197;28;20020;-66
2022/03/05 08:31:50;;;;;;;27.70;19.13;;;13.50;49.20;;;;;;5123154;28;20197;-67
2022/03/05 08:34:16;;;;;;;27.40;19.63;;;13.50;49.20;;;;;;5123045;28;20375;-66
2022/03/05 08:36:42;;;;;;;26.92;19.38;;;13.60;49.30;;;;;;5122829;28;20063;-66
2022/03/05 08:39:08;;;;;;;27.27;20.13;;;13.60;49.40;;;;;;5122986;28;20020;-68
2022/03/05 08:41:34;;;;;;;28.45;20.33;;;13.60;49.30;;;;;;5122920;28;20038;-67
2022/03/05 08:43:59;;;;;;;31.98;20.25;;;13.60;49.20;;;;;;5122838;28;20030;-67
2022/03/05 08:46:25;;;;;;;29.08;19.27;;;13.60;49.30;;;;;;5122837;28;20357;-67
2022/03/05 08:48:51;;;;;;;28.83;19.85;;;13.60;49.20;;;;;;5122832;28;20032;-67
2022/03/05 08:51:17;;;;;;;26.65;18.60;;;13.60;49.20;;;;;;5121459;28;20020;-66
2022/03/05 08:53:43;;;;;;;27.10;18.83;;;13.60;49.10;;;;;;5122698;28;20054;-67
2022/03/05 08:56:08;;;;;;;26.73;19.52;;;13.60;49.40;;;;;;5122566;28;20027;-68
2022/03/05 08:58:34;;;;;;;25.85;18.25;;;13.60;49.30;;;;;;5122585;28;20024;-67
2022/03/05 09:01:01;;;;;;;27.08;19.77;;;13.60;49.30;;;;;;5122586;28;20338;-67
2022/03/05 09:03:27;;;;;;;27.10;18.58;;;13.50;49.40;;;;;;5122515;28;20065;-67
2022/03/05 09:05:54;;;;;;;27.55;19.15;;;13.60;49.40;;;;;;5122158;28;20232;-67
2022/03/05 09:08:20;;;;;;;27.60;19.73;;;13.60;49.40;;;;;;5122348;28;20027;-67
2022/03/05 09:10:47;;;;;;;26.95;19.38;;;13.60;49.30;;;;;;5121144;28;20324;-68
2022/03/05 09:13:12;;;;;;;27.30;19.30;;;13.60;49.20;;;;;;5122276;28;20094;-67
2022/03/05 09:15:38;;;;;;;30.10;20.33;;;13.60;49.00;;;;;;5122241;28;20238;-68
2022/03/05 09:18:04;;;;;;;27.13;19.40;;;13.60;49.10;;;;;;5122250;28;20028;-66
2022/03/05 09:20:31;;;;;;;29.88;20.25;;;13.60;49.10;;;;;;5122204;28;20022;-67
2022/03/05 09:22:58;;;;;;;28.75;19.90;;;13.60;49.30;;;;;;5122251;28;20031;-66
2022/03/05 09:25:24;;;;;;;28.70;20.13;;;13.60;49.30;;;;;;5122012;28;20052;-67
2022/03/05 09:27:52;;;;;;;25.75;18.70;;;13.60;49.10;;;;;;5122049;28;20020;-67
2022/03/05 09:30:18;;;;;;;26.92;19.20;;;13.60;49.10;;;;;;5122045;28;20307;-67
2022/03/05 09:32:44;;;;;;;25.80;18.42;;;13.60;49.10;;;;;;5121946;28;20023;-67
2022/03/05 09:35:11;;;;;;;27.92;19.35;;;13.60;49.80;;;;;;5121901;28;20019;-67
2022/03/05 09:37:37;;;;;;;28.83;19.88;;;13.60;49.10;;;;;;5121555;28;20040;-68
2022/03/05 09:40:04;;;;;;;23.85;18.25;;;13.60;48.90;;;;;;5121777;28;20032;-67
2022/03/05 09:42:30;;;;;;;27.23;19.40;;;13.60;49.20;;;;;;5121710;28;20027;-67
2022/03/05 09:44:56;;;;;;;27.40;19.75;;;13.60;49.20;;;;;;5121758;28;20090;-67
2022/03/05 09:47:23;;;;;;;27.00;18.73;;;13.70;49.30;;;;;;5121656;28;20245;-67
2022/03/05 09:49:49;;;;;;;26.25;19.08;;;13.70;49.30;;;;;;5121593;28;20236;-66
2022/03/05 09:52:15;;;;;;;26.83;17.83;;;13.60;49.10;;;;;;5121529;28;20028;-67
2022/03/05 09:54:41;;;;;;;28.77;20.73;;;13.70;49.30;;;;;;5121497;28;20070;-66
2022/03/05 09:57:12;;;;;;;24.70;18.08;;;13.70;49.20;;;;;;5121358;28;20027;-67
2022/03/05 09:59:37;;;;;;;27.27;19.15;;;13.70;49.30;;;;;;5121411;28;20024;-65
2022/03/05 10:02:05;;;;;;;26.48;18.70;;;13.60;49.20;;;;;;5121407;28;20043;-68
2022/03/05 10:04:31;;;;;;;26.23;19.20;;;13.70;49.30;;;;;;5121289;28;20019;-66
2022/03/05 10:07:14;;;;;;;29.33;19.42;;;13.70;49.30;;;;;;5121158;28;20530;-67
2022/03/05 10:09:43;;;;;;;30.83;19.25;;;13.70;49.80;;;;;;5121230;28;20031;-68
2022/03/05 10:12:27;;;;;;;;;;;13.70;49.30;;;;;;5121631;28;20031;-66
2022/03/05 10:15:12;;;;;;;29.70;18.92;;;13.70;49.00;;;;;;5121174;28;19900;-67
2022/03/05 10:17:57;;;;;;;24.80;17.58;;;13.70;48.90;;;;;;5120667;28;20022;-68
2022/03/05 10:20:32;;;;;;;26.90;19.70;;;13.70;48.90;;;;;;5119915;28;20057;-67
2022/03/05 10:23:04;;;;;;;29.33;19.60;;;13.70;49.10;;;;;;5121021;28;20016;-67
2022/03/05 10:25:37;;;;;;;26.05;18.33;;;13.70;49.20;;;;;;5121019;28;20015;-66
2022/03/05 10:28:27;;;;;;;26.00;18.52;;;13.70;49.10;;;;;;5120918;28;20019;-68
2022/03/05 10:30:58;;;;;;;26.58;18.30;;;13.70;49.20;;;;;;5120969;28;20020;-68
2022/03/05 10:33:32;;;;;;;27.27;18.30;;;13.70;49.20;;;;;;5120873;28;20027;-68
2022/03/05 10:36:01;;;;;;;27.05;18.33;;;13.80;49.20;;;;;;5120908;28;20324;-68
2022/03/05 10:38:51;;;;;;;23.73;17.38;;;13.80;49.10;;;;;;5120733;28;20043;-68
2022/03/05 10:41:23;;;;;;;27.48;19.35;;;13.80;49.20;;;;;;5120695;28;20038;-67
2022/03/05 10:44:10;;;;;;;27.83;18.05;;;13.80;49.30;;;;;;5120712;28;20344;-67
2022/03/05 10:46:46;;;;;;;26.08;17.67;;;13.80;49.10;;;;;;5120787;28;20347;-66
2022/03/05 10:49:20;;;;;;;26.65;18.42;;;13.80;49.10;;;;;;5120717;28;20028;-67
2022/03/05 10:51:50;;;;;;;27.33;18.25;;;13.80;49.30;;;;;;5120618;28;20027;-66
2022/03/05 10:54:40;;;;;;;25.50;18.70;;;13.80;49.40;;;;;;5120640;28;20030;-66
2022/03/05 10:57:23;;;;;;;26.13;18.20;;;13.80;49.50;;;;;;5110395;28;20046;-67
2022/03/05 10:59:55;;;;;;;26.48;18.92;;;13.90;49.60;;;;;;5120638;28;20030;-66
2022/03/05 11:02:22;;;;;;;24.67;18.42;;;13.80;49.30;;;;;;5120528;28;20069;-66
2022/03/05 11:04:51;;;;;;;25.63;19.45;;;13.80;49.10;;;;;;5120551;28;20015;-67
2022/03/05 11:07:17;;;;;;;;;;;13.80;49.20;;;;;;5120966;28;20026;-67
2022/03/05 11:09:44;;;;;;;25.20;17.50;;;13.80;49.20;;;;;;5120477;28;19907;-67
2022/03/05 11:12:16;;;;;;;25.33;18.73;;;13.80;49.40;;;;;;5120387;28;20027;-67
2022/03/05 11:14:48;;;;;;;27.33;17.63;;;13.80;49.10;;;;;;5120453;28;20337;-66
2022/03/05 11:17:15;;;;;;;27.30;18.20;;;13.80;49.20;;;;;;5120462;28;20371;-67
2022/03/05 11:19:45;;;;;;;27.58;18.60;;;13.80;49.30;;;;;;5120369;28;20028;-68
2022/03/05 11:22:13;;;;;;;26.05;18.33;;;13.80;49.30;;;;;;5119158;28;20026;-66
2022/03/05 11:24:41;;;;;;;26.88;18.63;;;13.80;49.30;;;;;;5119046;28;20047;-67
2022/03/05 11:27:12;;;;;;;24.48;18.42;;;13.80;49.50;;;;;;5120286;28;20020;-66
2022/03/05 11:29:59;;;;;;;22.30;16.20;;;13.80;49.40;;;;;;5121556;28;20026;-68
2022/03/05 11:32:40;;;;;;;22.60;16.48;;;13.80;49.40;;;;;;5124343;28;20047;-67
2022/03/05 11:35:43;;;;;;;22.70;16.92;;;13.80;49.10;;;;;;5124292;28;20084;-67
2022/03/05 11:38:34;;;;;;;27.17;17.85;;;13.80;49.30;;;;;;5081997;28;20297;-68
2022/03/05 11:41:21;;;;;;;24.27;16.95;;;13.80;49.50;;;;;;5124205;28;20016;-67
2022/03/05 11:43:47;;;;;;;25.88;18.75;;;13.80;49.30;;;;;;5124192;28;20030;-67
2022/03/05 11:46:27;;;;;;;27.92;19.45;;;13.80;49.40;;;;;;5124095;28;20019;-67
2022/03/05 11:49:01;;;;;;;24.45;18.38;;;13.90;49.50;;;;;;5124073;28;20027;-69
2022/03/05 11:51:26;;;;;;;23.92;18.13;;;13.80;49.50;;;;;;5123949;28;20012;-68
2022/03/05 11:54:15;;;;;;;26.90;18.55;;;13.80;49.20;;;;;;5123834;28;20031;-68
2022/03/05 11:57:03;;;;;;;26.95;19.13;;;13.90;49.20;;;;;;5123817;28;20438;-66
2022/03/05 11:59:30;;;;;;;25.02;17.33;;;13.80;49.30;;;;;;5123841;28;20074;-67
2022/03/05 12:01:55;;;;;;;25.95;18.13;;;13.80;49.40;;;;;;5123819;28;20043;-67
2022/03/05 12:04:27;;;;;;;24.70;17.15;;;13.90;49.30;;;;;;5123636;28;20066;-67
2022/03/05 12:07:05;;;;;;;26.52;18.80;;;13.80;49.30;;;;;;5123659;28;20030;-67
2022/03/05 12:09:31;;;;;;;26.95;17.95;;;13.80;49.20;;;;;;5123590;28;20062;-67
2022/03/05 12:11:56;;;;;;;26.92;18.52;;;13.80;49.20;;;;;;5123604;28;20023;-67
2022/03/05 12:14:22;;;;;;;23.85;17.77;;;13.90;49.50;;;;;;5123522;28;20348;-67
2022/03/05 12:16:48;;;;;;;23.90;16.77;;;13.90;49.50;;;;;;5123427;28;20019;-67
2022/03/05 12:19:15;;;;;;;25.27;18.38;;;13.90;49.40;;;;;;5123455;28;20035;-68
2022/03/05 12:21:41;;;;;;;23.88;17.90;;;13.90;49.60;;;;;;5123380;28;20034;-66
2022/03/05 12:24:10;;;;;;;25.70;19.10;;;13.90;49.50;;;;;;5123359;28;20047;-67
2022/03/05 12:26:45;;;;;;;24.45;17.70;;;13.80;49.50;;;;;;5123509;28;20023;-65
2022/03/05 12:29:11;;;;;;;24.42;17.63;;;13.80;49.30;;;;;;5123220;28;20027;-66
2022/03/05 12:31:44;;;;;;;24.80;18.55;;;13.80;49.40;;;;;;5123242;28;20031;-67
2022/03/05 12:34:11;;;;;;;28.50;19.52;;;13.80;49.50;;;;;;5123181;28;20034;-66